Time;durP1;ratioP1;P1;durP2;ratioP2;P2;SDS_P1;SDS_P2;PMS_P1;PMS_P2;Temp;Humidity;BMP_temperature;BMP_pressure;BME280_temperature;BME280_humidity;BME280_pressure;Samples;Min_cycle;Max_cycle;Signal;HPM_P1;HPM_P2
2022/05/31 00:01:41;;;;;;;14.38;7.58;;;;;;;16.12;85.62;99502.02;1724609;81;21514;-70
2022/05/31 00:04:07;;;;;;;11.65;6.70;;;;;;;16.10;85.72;99504.34;1746482;81;21010;-70
2022/05/31 00:06:34;;;;;;;8.80;6.10;;;;;;;16.07;85.69;99504.47;1728086;81;21027;-75
2022/05/31 00:09:00;;;;;;;9.88;6.28;;;;;;;16.04;85.70;99494.07;1746652;81;21004;-74
2022/05/31 00:11:31;;;;;;;14.23;6.87;;;;;;;16.00;85.78;99498.14;1745964;79;21091;-73
2022/05/31 00:13:58;;;;;;;11.22;6.72;;;;;;;15.94;85.86;99485.66;1746225;81;22013;-73
2022/05/31 00:16:24;;;;;;;10.20;5.90;;;;;;;15.89;86.02;99495.08;1754347;81;21484;-76
2022/05/31 00:18:57;;;;;;;12.63;6.35;;;;;;;15.85;86.22;99500.32;1745565;80;21594;-73
2022/05/31 00:21:39;;;;;;;16.27;6.90;;;;;;;15.85;86.25;99508.66;1749927;81;21071;-70
2022/05/31 00:24:08;;;;;;;11.80;6.37;;;;;;;15.82;86.13;99505.42;1753364;81;21511;-69
2022/05/31 00:26:41;;;;;;;14.40;6.17;;;;;;;15.79;85.84;99508.91;1749713;81;21814;-73
2022/05/31 00:29:08;;;;;;;10.53;5.97;;;;;;;15.76;85.77;99508.21;1751338;81;20939;-73
2022/05/31 00:31:37;;;;;;;10.18;6.33;;;;;;;15.71;85.77;99508.50;1748645;81;21570;-72
2022/05/31 00:34:09;;;;;;;8.53;6.15;;;;;;;15.68;85.82;99500.85;1747633;81;21070;-72
2022/05/31 00:36:36;;;;;;;10.78;6.60;;;;;;;15.65;85.80;99505.16;1734880;81;21051;-71
2022/05/31 00:39:05;;;;;;;10.85;6.75;;;;;;;15.63;85.81;99503.31;1733726;82;21863;-74
2022/05/31 00:41:34;;;;;;;10.65;6.72;;;;;;;15.61;85.84;99503.45;1749551;81;21023;-72
2022/05/31 00:44:09;;;;;;;11.68;7.22;;;;;;;15.59;85.95;99496.88;1746392;81;21022;-71
2022/05/31 00:46:46;;;;;;;18.87;6.10;;;;;;;15.59;86.05;99506.59;1745572;80;21019;-71
2022/05/31 00:49:32;;;;;;;11.57;6.62;;;;;;;15.58;86.04;99505.77;1754255;81;21539;-73
2022/05/31 00:52:04;;;;;;;12.18;6.78;;;;;;;15.58;85.86;99512.72;1744285;81;21113;-71
2022/05/31 00:54:33;;;;;;;9.85;6.47;;;;;;;15.55;85.48;99516.78;1753028;80;20999;-69
2022/05/31 00:57:03;;;;;;;11.15;7.12;;;;;;;15.52;85.52;99525.25;1721162;80;21791;-68
2022/05/31 00:59:39;;;;;;;8.83;5.80;;;;;;;15.49;85.65;99516.81;1734982;81;21003;-72
2022/05/31 01:02:07;;;;;;;14.70;7.10;;;;;;;15.44;85.63;99515.08;1721860;82;21503;-73
2022/05/31 01:04:42;;;;;;;12.45;6.42;;;;;;;15.41;85.87;99509.66;1727484;82;21122;-71
2022/05/31 01:07:12;;;;;;;11.48;6.75;;;;;;;15.40;85.71;99516.96;1719213;82;21480;-72
2022/05/31 01:09:39;;;;;;;11.30;6.80;;;;;;;15.35;85.56;99522.77;1748899;81;21050;-72
2022/05/31 01:12:28;;;;;;;7.87;5.72;;;;;;;15.32;85.59;99514.55;1746951;81;21007;-74
2022/05/31 01:15:15;;;;;;;16.90;6.53;;;;;;;15.31;85.64;99525.44;1742342;81;21088;-73
2022/05/31 01:18:01;;;;;;;10.72;6.80;;;;;;;15.29;85.65;99520.23;1721433;82;21167;-73
2022/05/31 01:20:39;;;;;;;10.82;6.22;;;;;;;15.29;85.55;99526.36;1673257;85;21092;-75
2022/05/31 01:23:13;;;;;;;11.28;7.30;;;;;;;15.27;85.51;99535.04;1711214;81;20995;-72
2022/05/31 01:25:50;;;;;;;15.35;7.33;;;;;;;15.25;85.42;99532.40;1753596;81;20979;-70
2022/05/31 01:28:48;;;;;;;16.02;7.22;;;;;;;15.24;85.68;99534.93;1734871;81;21120;-73
2022/05/31 01:31:32;;;;;;;11.63;7.83;;;;;;;15.22;85.81;99526.95;1732032;82;21572;-73
2022/05/31 01:34:20;;;;;;;14.65;7.03;;;;;;;15.24;86.05;99531.59;1748529;81;21070;-74
2022/05/31 01:36:53;;;;;;;12.58;6.87;;;;;;;15.26;86.11;99534.82;1752828;81;21130;-73
2022/05/31 01:39:48;;;;;;;11.28;7.12;;;;;;;15.26;86.15;99532.05;1734867;82;21030;-72
2022/05/31 01:42:20;;;;;;;13.35;7.75;;;;;;;15.26;86.29;99533.44;1749746;81;21107;-72
2022/05/31 01:45:02;;;;;;;9.55;6.35;;;;;;;15.28;86.31;99544.18;1747417;81;21504;-70
2022/05/31 01:47:31;;;;;;;12.30;6.23;;;;;;;15.27;86.41;99537.81;1731515;81;21048;-72
2022/05/31 01:49:58;;;;;;;12.37;7.00;;;;;;;15.30;86.48;99540.48;1734111;82;21178;-71
2022/05/31 01:52:26;;;;;;;8.75;6.15;;;;;;;15.28;86.47;99532.51;1735141;82;21500;-73
2022/05/31 01:54:55;;;;;;;17.48;6.33;;;;;;;15.30;86.57;99532.16;1746779;80;21003;-73
2022/05/31 01:57:23;;;;;;;8.93;6.55;;;;;;;15.28;86.63;99528.34;1730450;81;21126;-75
2022/05/31 01:59:54;;;;;;;12.78;6.55;;;;;;;15.28;86.72;99532.51;1743988;80;21544;-74
2022/05/31 02:02:21;;;;;;;9.93;5.97;;;;;;;15.30;86.76;99532.94;1749166;81;21064;-73
2022/05/31 02:04:49;;;;;;;7.53;5.58;;;;;;;15.27;86.53;99528.09;1744019;81;21024;-75
2022/05/31 02:07:21;;;;;;;8.80;6.20;;;;;;;15.21;86.58;99527.56;1700351;83;21038;-70
2022/05/31 02:09:50;;;;;;;12.60;5.80;;;;;;;15.18;86.84;99529.63;1736096;81;21048;-72
2022/05/31 02:12:25;;;;;;;11.15;5.45;;;;;;;15.19;87.17;99525.70;1697767;83;21113;-74
2022/05/31 02:14:56;;;;;;;11.48;5.53;;;;;;;15.23;87.40;99520.27;1748922;80;20999;-74
2022/05/31 02:17:23;;;;;;;8.58;5.30;;;;;;;15.28;87.51;99515.86;1749558;81;21045;-75
2022/05/31 02:19:49;;;;;;;16.97;5.67;;;;;;;15.34;87.50;99530.27;1750149;81;20972;-72
2022/05/31 02:22:20;;;;;;;9.63;5.90;;;;;;;15.40;87.50;99528.06;1728496;83;21514;-74
2022/05/31 02:24:50;;;;;;;7.85;5.72;;;;;;;15.44;87.37;99524.22;1743735;81;21483;-72
2022/05/31 02:27:20;;;;;;;13.62;6.55;;;;;;;15.50;87.40;99531.73;1730742;81;21125;-72
2022/05/31 02:29:49;;;;;;;9.35;6.17;;;;;;;15.55;87.34;99535.64;1760286;81;21007;-72
2022/05/31 02:32:18;;;;;;;9.05;5.47;;;;;;;15.58;87.27;99536.89;1760175;81;20984;-73
2022/05/31 02:34:47;;;;;;;16.32;7.25;;;;;;;15.60;87.17;99546.25;1743133;81;21047;-72
2022/05/31 02:37:15;;;;;;;11.90;6.40;;;;;;;15.56;87.13;99551.13;1743396;81;21064;-72
2022/05/31 02:39:42;;;;;;;11.97;6.30;;;;;;;15.51;87.30;99550.56;1746652;81;21053;-71
2022/05/31 02:42:14;;;;;;;13.83;6.58;;;;;;;15.51;87.79;99543.05;1747059;81;21718;-74
2022/05/31 02:44:43;;;;;;;9.85;6.33;;;;;;;15.56;88.09;99533.66;1742268;81;21062;-74
2022/05/31 02:47:10;;;;;;;13.85;6.80;;;;;;;15.64;88.23;99536.06;1744258;81;21137;-73
2022/05/31 02:49:38;;;;;;;15.25;6.85;;;;;;;15.72;88.31;99537.88;1700645;83;21052;-75
2022/05/31 02:52:06;;;;;;;13.00;7.22;;;;;;;15.76;88.25;99535.20;1743163;81;21022;-74
2022/05/31 02:54:33;;;;;;;10.10;6.58;;;;;;;15.81;88.24;99532.95;1735881;82;20990;-74
2022/05/31 02:57:08;;;;;;;8.68;6.45;;;;;;;15.88;88.16;99537.10;1709412;82;21137;-70
2022/05/31 02:59:56;;;;;;;12.23;7.42;;;;;;;15.94;88.05;99537.06;1724902;82;21024;-72
2022/05/31 03:02:39;;;;;;;11.70;6.25;;;;;;;15.98;87.97;99546.31;1669499;85;21093;-71
2022/05/31 03:05:12;;;;;;;11.38;6.17;;;;;;;16.01;87.94;99544.80;1705321;82;21070;-75
2022/05/31 03:07:47;;;;;;;12.43;6.65;;;;;;;16.04;87.98;99550.46;1721199;81;20995;-71
2022/05/31 03:10:19;;;;;;;9.63;6.37;;;;;;;16.11;87.93;99561.53;1725594;82;21471;-74
2022/05/31 03:12:49;;;;;;;11.85;6.50;;;;;;;16.17;87.92;99563.69;1702169;82;21003;-73
2022/05/31 03:15:19;;;;;;;12.70;6.70;;;;;;;16.24;87.95;99567.84;1730889;81;21031;-73
2022/05/31 03:17:52;;;;;;;10.72;5.58;;;;;;;16.28;87.96;99562.59;1717019;83;21043;-70
2022/05/31 03:20:28;;;;;;;8.68;6.22;;;;;;;16.34;87.94;99570.09;1726570;82;20999;-73
2022/05/31 03:23:01;;;;;;;18.20;5.97;;;;;;;16.38;87.75;99578.49;1726750;82;21058;-72
2022/05/31 03:25:27;;;;;;;7.78;5.58;;;;;;;16.38;87.74;99572.36;1712757;83;21094;-71
2022/05/31 03:27:59;;;;;;;10.82;5.53;;;;;;;16.38;87.78;99573.75;1722355;82;21011;-72
2022/05/31 03:30:28;;;;;;;9.93;6.22;;;;;;;16.40;87.77;99566.44;1714940;83;21083;-72
2022/05/31 03:32:58;;;;;;;11.08;5.65;;;;;;;16.43;87.74;99572.66;1730797;82;21022;-73
2022/05/31 03:35:29;;;;;;;12.47;5.58;;;;;;;16.47;87.79;99572.76;1726265;82;21106;-69
2022/05/31 03:37:58;;;;;;;10.10;6.33;;;;;;;16.53;87.74;99582.46;1753333;81;21199;-72
2022/05/31 03:43:12;;;;;;;10.72;5.75;;;;;;;16.61;87.54;99582.86;1728937;82;21595;-73
2022/05/31 03:45:45;;;;;;;7.45;5.78;;;;;;;16.63;87.33;99587.45;1707335;82;21012;-71
2022/05/31 03:48:32;;;;;;;6.80;5.67;;;;;;;16.66;87.21;99586.77;1727276;82;20975;-73
2022/05/31 03:51:05;;;;;;;8.13;6.08;;;;;;;16.69;87.04;99588.00;1730002;82;21254;-74
2022/05/31 03:53:36;;;;;;;8.50;5.53;;;;;;;16.72;86.92;99586.48;1706605;82;21065;-73
2022/05/31 03:56:05;;;;;;;7.25;5.62;;;;;;;16.74;86.81;99591.91;1728845;82;21042;-72
2022/05/31 03:58:32;;;;;;;13.00;6.05;;;;;;;16.75;86.67;99590.72;1706617;82;21000;-71
2022/05/31 04:01:05;;;;;;;8.10;5.83;;;;;;;16.78;86.57;99591.99;1725392;82;21012;-72
2022/05/31 04:03:34;;;;;;;8.30;5.75;;;;;;;16.80;86.46;99600.79;1745009;82;21259;-72
2022/05/31 04:06:08;;;;;;;8.80;5.72;;;;;;;16.78;86.44;99591.42;1747866;82;21505;-72
2022/05/31 04:08:35;;;;;;;9.55;5.95;;;;;;;16.79;86.39;99598.58;1746079;82;21035;-71
2022/05/31 04:11:04;;;;;;;14.23;5.97;;;;;;;16.79;86.25;99604.15;1748295;82;21540;-74
2022/05/31 04:13:37;;;;;;;9.58;6.50;;;;;;;16.78;86.15;99608.11;1744830;80;21036;-71
2022/05/31 04:16:26;;;;;;;7.50;6.05;;;;;;;16.77;86.13;99605.08;1712673;82;21357;-73
2022/05/31 04:18:58;;;;;;;7.05;5.22;;;;;;;16.73;86.25;99610.34;1744405;82;20995;-74
2022/05/31 04:21:25;;;;;;;9.53;6.92;;;;;;;16.72;86.48;99603.97;1724647;82;21016;-71
2022/05/31 04:24:02;;;;;;;8.98;6.45;;;;;;;16.73;86.42;99611.73;1746620;82;20969;-71
2022/05/31 04:26:42;;;;;;;8.88;6.15;;;;;;;16.72;86.37;99610.14;1746250;82;21516;-73
2022/05/31 04:29:30;;;;;;;6.95;5.78;;;;;;;16.73;86.42;99619.51;1727891;82;20989;-71
2022/05/31 04:32:16;;;;;;;7.20;6.25;;;;;;;16.75;86.41;99615.76;1729075;82;21426;-71
2022/05/31 04:34:52;;;;;;;16.90;7.17;;;;;;;16.75;86.33;99622.72;1725676;82;21068;-73
2022/05/31 04:37:21;;;;;;;11.43;6.95;;;;;;;16.76;86.20;99619.36;1734596;82;21088;-70
2022/05/31 04:40:01;;;;;;;8.20;6.35;;;;;;;16.74;86.16;99620.30;1732749;81;21043;-71
2022/05/31 04:42:42;;;;;;;10.45;5.60;;;;;;;16.72;86.31;99625.44;1731870;82;21244;-72
2022/05/31 04:45:14;;;;;;;6.92;5.78;;;;;;;16.74;86.23;99624.47;1734639;82;21489;-72
2022/05/31 04:47:43;;;;;;;10.72;5.92;;;;;;;16.72;86.11;99626.22;1736122;81;21048;-70
2022/05/31 04:50:13;;;;;;;13.93;6.87;;;;;;;16.71;86.18;99632.14;1733966;82;20997;-70
2022/05/31 04:52:40;;;;;;;9.13;5.62;;;;;;;16.71;86.22;99639.92;1735910;82;21048;-74
2022/05/31 04:55:07;;;;;;;8.15;7.00;;;;;;;16.68;86.19;99643.42;1736019;82;21478;-71
2022/05/31 04:57:35;;;;;;;10.72;6.37;;;;;;;16.61;86.22;99648.80;1730051;82;20992;-71
2022/05/31 05:00:06;;;;;;;10.53;6.95;;;;;;;16.54;86.65;99655.80;1742996;81;21587;-70
2022/05/31 05:02:37;;;;;;;13.53;6.97;;;;;;;16.52;86.72;99655.91;1717802;81;21726;-70
2022/05/31 05:05:13;;;;;;;8.45;5.75;;;;;;;16.49;86.71;99651.89;1745407;81;21071;-72
2022/05/31 05:07:49;;;;;;;8.55;6.83;;;;;;;16.50;86.78;99649.89;1742743;81;21100;-73
2022/05/31 05:10:19;;;;;;;8.85;6.70;;;;;;;16.49;86.84;99649.11;1740592;80;21001;-73
2022/05/31 05:13:04;;;;;;;8.75;7.08;;;;;;;16.47;86.73;99651.43;1743570;81;21130;-73
2022/05/31 05:15:40;;;;;;;8.75;6.72;;;;;;;16.44;86.75;99660.49;1700213;81;21039;-72
2022/05/31 05:18:07;;;;;;;11.48;7.08;;;;;;;16.43;86.80;99664.42;1716496;80;21512;-74
2022/05/31 05:20:38;;;;;;;12.85;7.83;;;;;;;16.43;86.92;99665.23;1752701;81;21154;-75
2022/05/31 05:23:08;;;;;;;8.05;6.67;;;;;;;16.48;86.73;99661.98;1753144;80;21012;-71
2022/05/31 05:25:35;;;;;;;11.38;6.67;;;;;;;16.50;86.80;99666.58;1716309;81;21474;-73
2022/05/31 05:30:59;;;;;;;9.70;7.20;;;;;;;16.62;86.59;99669.87;1722826;81;21084;-75
2022/05/31 05:33:27;;;;;;;8.23;6.50;;;;;;;16.66;86.32;99669.39;1750839;81;21712;-71
2022/05/31 05:36:08;;;;;;;8.33;7.30;;;;;;;16.69;86.29;99665.89;1747643;81;21000;-71
2022/05/31 05:38:34;;;;;;;11.00;6.28;;;;;;;16.76;85.87;99665.26;1718364;81;21023;-73
2022/05/31 05:41:20;;;;;;;8.15;6.40;;;;;;;16.76;85.42;99662.48;1742741;81;21094;-71
2022/05/31 05:44:01;;;;;;;10.90;7.10;;;;;;;16.76;85.07;99664.69;1681009;84;21645;-68
2022/05/31 05:46:29;;;;;;;7.72;5.83;;;;;;;16.81;85.01;99668.34;1681670;84;21197;-73
2022/05/31 05:48:57;;;;;;;8.65;6.65;;;;;;;16.87;84.94;99673.28;1726977;81;21020;-73
2022/05/31 05:51:29;;;;;;;7.87;6.95;;;;;;;16.90;84.43;99675.95;1751191;81;21052;-68
2022/05/31 05:54:10;;;;;;;12.20;6.35;;;;;;;16.93;84.36;99675.22;1740299;81;21145;-74
2022/05/31 05:56:42;;;;;;;16.87;7.53;;;;;;;16.96;84.01;99676.46;1685707;81;21316;-73
2022/05/31 05:59:27;;;;;;;11.28;7.12;;;;;;;16.98;84.06;99679.70;1725369;81;21214;-74
2022/05/31 06:02:22;;;;;;;8.23;7.03;;;;;;;17.01;84.01;99685.36;1726390;81;21142;-76
2022/05/31 06:05:03;;;;;;;12.55;6.45;;;;;;;17.06;83.50;99679.30;1740903;81;21126;-73
2022/05/31 06:07:34;;;;;;;8.88;6.28;;;;;;;17.09;83.27;99685.54;1745415;81;21007;-72
2022/05/31 06:10:18;;;;;;;8.05;7.00;;;;;;;17.10;82.78;99682.42;1752930;80;21061;-75
2022/05/31 06:12:53;;;;;;;10.23;6.35;;;;;;;17.04;82.02;99687.41;1753355;80;21926;-73
2022/05/31 06:15:23;;;;;;;9.48;6.00;;;;;;;17.02;82.19;99689.77;1739838;81;21460;-73
2022/05/31 06:17:53;;;;;;;12.88;6.40;;;;;;;17.07;82.24;99701.78;1747721;81;21051;-75
2022/05/31 06:20:19;;;;;;;8.00;6.80;;;;;;;17.07;81.89;99702.60;1747873;81;21489;-76
2022/05/31 06:22:48;;;;;;;11.08;8.35;;;;;;;17.07;81.99;99703.17;1745551;81;21015;-74
2022/05/31 06:25:20;;;;;;;8.35;7.37;;;;;;;16.97;81.44;99705.34;1749975;81;21081;-72
2022/05/31 06:28:01;;;;;;;8.38;7.17;;;;;;;16.85;81.73;99716.55;1712921;80;21648;-70
2022/05/31 06:30:29;;;;;;;19.20;7.78;;;;;;;16.83;81.90;99715.53;1756125;80;21051;-71
2022/05/31 06:32:57;;;;;;;11.20;7.12;;;;;;;16.78;81.85;99719.39;1743154;80;20996;-69
2022/05/31 06:35:24;;;;;;;15.63;7.85;;;;;;;16.76;82.35;99723.68;1743501;80;21040;-70
2022/05/31 06:37:56;;;;;;;13.70;6.78;;;;;;;16.76;82.65;99725.89;1743067;81;21718;-68
2022/05/31 06:40:22;;;;;;;11.28;6.65;;;;;;;16.79;82.56;99727.14;1740981;81;21020;-72
2022/05/31 06:43:08;;;;;;;8.75;6.37;;;;;;;16.79;82.22;99722.96;1743580;81;21583;-67
2022/05/31 06:45:55;;;;;;;10.72;6.15;;;;;;;16.80;82.12;99735.72;1741191;81;21482;-69
2022/05/31 06:48:31;;;;;;;12.98;6.90;;;;;;;16.75;81.74;99735.38;1722806;81;21028;-70
2022/05/31 06:51:14;;;;;;;7.87;6.15;;;;;;;16.73;82.04;99739.12;1742781;81;21211;-68
2022/05/31 06:56:57;;;;;;;7.12;6.12;;;;;;;16.78;82.31;99743.61;1743613;81;20996;-72
2022/05/31 06:59:31;;;;;;;9.75;7.22;;;;;;;16.79;82.08;99734.91;1742729;81;21158;-68
2022/05/31 07:02:06;;;;;;;9.40;6.58;;;;;;;16.79;81.86;99735.48;1741771;81;21528;-68
2022/05/31 07:04:35;;;;;;;8.15;6.05;;;;;;;16.80;81.83;99739.90;1741007;81;21151;-68
2022/05/31 07:07:03;;;;;;;7.20;6.28;;;;;;;16.81;82.12;99738.72;1716276;81;21311;-71
2022/05/31 07:09:35;;;;;;;13.88;7.00;;;;;;;16.84;82.31;99733.83;1744684;81;21007;-70
2022/05/31 07:12:06;;;;;;;9.33;6.62;;;;;;;16.91;82.34;99738.77;1741212;81;21021;-70
2022/05/31 07:14:38;;;;;;;16.00;7.08;;;;;;;16.97;82.11;99749.06;1706233;81;21063;-70
2022/05/31 07:17:26;;;;;;;10.18;6.58;;;;;;;16.95;81.58;99750.81;1743655;81;21019;-69
2022/05/31 07:19:57;;;;;;;11.55;6.87;;;;;;;16.88;81.51;99755.61;1740656;81;21500;-69
2022/05/31 07:22:25;;;;;;;9.90;6.90;;;;;;;16.85;81.43;99755.52;1713684;81;21091;-70
2022/05/31 07:24:54;;;;;;;7.83;6.47;;;;;;;16.80;81.69;99760.77;1748111;80;21547;-71
2022/05/31 07:27:22;;;;;;;14.75;6.55;;;;;;;16.81;81.85;99768.51;1740480;81;21044;-70
2022/05/31 07:29:50;;;;;;;14.87;7.70;;;;;;;16.85;81.83;99779.98;1716038;81;21116;-70
2022/05/31 07:32:17;;;;;;;12.10;6.85;;;;;;;16.89;81.68;99780.87;1745524;81;21481;-71
2022/05/31 07:34:44;;;;;;;12.40;5.87;;;;;;;16.90;81.00;99781.69;1745128;82;21012;-70
2022/05/31 07:37:12;;;;;;;12.07;6.22;;;;;;;16.88;80.27;99787.61;1743528;81;21082;-71
2022/05/31 07:39:39;;;;;;;11.43;6.87;;;;;;;16.88;80.29;99782.05;1741624;81;21579;-67
2022/05/31 07:42:11;;;;;;;12.95;7.33;;;;;;;16.94;79.69;99781.78;1717382;81;21481;-69
2022/05/31 07:44:39;;;;;;;9.70;5.85;;;;;;;16.98;79.58;99794.62;1754291;80;21083;-72
2022/05/31 07:47:07;;;;;;;11.35;5.72;;;;;;;17.01;79.22;99786.13;1743077;81;21047;-67
2022/05/31 07:49:33;;;;;;;15.05;6.72;;;;;;;17.04;78.97;99789.00;1746028;80;21119;-70
2022/05/31 07:52:09;;;;;;;12.63;6.50;;;;;;;17.11;77.80;99795.97;1736690;81;21084;-71
2022/05/31 08:00:42;;;;;;;13.60;7.80;;;;;;;17.19;79.87;99806.12;1834032;77;20906;-72
2022/05/31 08:03:12;;;;;;;9.13;6.92;;;;;;;17.17;80.14;99807.62;1832891;78;21197;-70
2022/05/31 08:05:39;;;;;;;10.53;7.40;;;;;;;17.11;80.29;99807.11;1832804;78;21250;-69
2022/05/31 08:08:09;;;;;;;7.08;6.33;;;;;;;17.01;80.14;99809.20;1828021;77;20918;-70
2022/05/31 08:10:38;;;;;;;6.47;5.87;;;;;;;16.94;79.93;99815.96;1828997;78;21059;-71
2022/05/31 08:13:05;;;;;;;8.63;6.97;;;;;;;16.86;79.57;99818.33;1816786;78;21001;-68
2022/05/31 08:15:31;;;;;;;11.83;6.83;;;;;;;16.81;79.34;99813.02;1820229;77;21506;-69
2022/05/31 08:18:01;;;;;;;8.95;6.53;;;;;;;16.75;79.17;99818.84;1823368;77;20952;-68
2022/05/31 08:20:30;;;;;;;9.85;5.72;;;;;;;16.67;79.03;99816.45;1803058;77;21030;-69
2022/05/31 08:22:56;;;;;;;12.05;6.22;;;;;;;16.68;78.80;99828.40;1803999;78;21014;-69
2022/05/31 08:25:24;;;;;;;7.80;5.20;;;;;;;16.67;78.35;99846.23;1798085;79;21003;-72
2022/05/31 08:27:50;;;;;;;10.50;5.00;;;;;;;16.66;78.20;99852.98;1800236;78;21756;-71
2022/05/31 08:30:17;;;;;;;7.40;4.75;;;;;;;16.58;77.35;99863.06;1796860;79;21010;-71
2022/05/31 08:32:44;;;;;;;8.93;4.87;;;;;;;16.49;77.03;99872.16;1802335;78;20999;-71
2022/05/31 08:35:11;;;;;;;8.63;4.75;;;;;;;16.41;77.94;99869.15;1796234;76;21554;-72
2022/05/31 08:37:40;;;;;;;19.82;5.25;;;;;;;16.36;78.58;99869.39;1802159;78;21094;-72
2022/05/31 08:40:11;;;;;;;6.92;4.85;;;;;;;16.29;79.41;99863.03;1799562;79;21186;-70
2022/05/31 08:42:58;;;;;;;7.15;5.10;;;;;;;16.18;80.27;99864.69;1800164;79;21483;-71
2022/05/31 08:45:44;;;;;;;7.22;5.33;;;;;;;16.02;81.20;99864.01;1786612;79;21000;-70
2022/05/31 08:48:30;;;;;;;7.50;5.42;;;;;;;15.92;82.08;99854.72;1789200;79;21007;-74
2022/05/31 08:56:57;;;;;;;9.43;5.25;;;;;;;15.98;83.71;99850.57;1811977;78;21073;-71
2022/05/31 08:59:44;;;;;;;9.45;5.42;;;;;;;15.99;83.84;99854.16;1819133;78;20930;-71
2022/05/31 09:02:51;;;;;;;8.83;4.25;;;;;;;15.91;83.98;99851.72;1799887;78;20979;-71
2022/05/31 09:05:29;;;;;;;13.05;4.50;;;;;;;15.78;83.74;99847.55;1819135;78;21057;-68
2022/05/31 09:08:16;;;;;;;6.33;3.92;;;;;;;15.59;83.19;99850.93;1819009;78;21224;-70
2022/05/31 09:10:46;;;;;;;10.30;4.00;;;;;;;15.36;85.38;99851.36;1820542;78;21030;-71
2022/05/31 09:13:44;;;;;;;9.45;4.00;;;;;;;15.09;86.50;99853.61;1816741;78;21318;-70
2022/05/31 09:16:42;;;;;;;8.93;4.28;;;;;;;15.01;87.17;99867.01;1815083;78;21582;-68
2022/05/31 09:19:15;;;;;;;5.72;4.15;;;;;;;14.90;86.38;99877.14;1774049;78;21005;-70
2022/05/31 09:21:51;;;;;;;4.85;3.35;;;;;;;14.75;87.14;99876.34;1816180;78;21597;-67
2022/05/31 09:24:26;;;;;;;3.42;2.50;;;;;;;14.72;86.89;99864.78;1816463;78;21026;-73
2022/05/31 09:27:22;;;;;;;4.70;2.92;;;;;;;14.79;87.43;99865.61;1796877;78;20999;-66
2022/05/31 09:30:29;;;;;;;10.38;3.15;;;;;;;14.89;87.02;99860.27;1807356;78;20998;-70
2022/05/31 09:33:21;;;;;;;4.53;3.00;;;;;;;15.00;87.01;99851.49;1783503;78;21073;-70
2022/05/31 09:36:19;;;;;;;11.85;2.65;;;;;;;15.08;86.65;99855.57;1820625;78;21859;-72
2022/05/31 09:39:03;;;;;;;5.97;2.67;;;;;;;15.16;86.52;99855.83;1786992;78;21022;-69
2022/05/31 09:41:47;;;;;;;6.15;2.62;;;;;;;15.23;86.15;99859.42;1808843;78;21490;-74
2022/05/31 09:44:25;;;;;;;4.95;2.95;;;;;;;15.26;85.17;99867.06;1817553;78;21026;-72
2022/05/31 09:47:20;;;;;;;4.85;3.33;;;;;;;15.24;84.98;99867.98;1817822;78;21510;-71
2022/05/31 09:49:50;;;;;;;7.50;3.00;;;;;;;15.25;84.89;99864.85;1780055;78;21581;-71
2022/05/31 09:52:45;;;;;;;9.80;3.27;;;;;;;15.29;84.80;99875.52;1815363;78;21021;-73
2022/05/31 09:58:42;;;;;;;7.78;2.87;;;;;;;15.38;84.60;99880.98;1808504;78;21509;-69
2022/05/31 10:01:27;;;;;;;6.00;3.02;;;;;;;15.43;84.50;99881.33;1808164;78;21494;-72
2022/05/31 10:04:02;;;;;;;4.50;2.70;;;;;;;15.48;84.44;99874.73;1779805;78;21134;-70
2022/05/31 10:06:33;;;;;;;7.10;2.87;;;;;;;15.53;84.38;99876.72;1793466;78;21010;-68
2022/05/31 10:09:17;;;;;;;4.47;2.65;;;;;;;15.58;84.29;99879.27;1794253;78;21014;-71
2022/05/31 10:11:51;;;;;;;8.03;2.80;;;;;;;15.63;84.05;99881.56;1803407;78;21081;-72
2022/05/31 10:14:26;;;;;;;3.85;2.45;;;;;;;15.63;82.91;99888.52;1771553;78;21030;-69
2022/05/31 10:16:54;;;;;;;12.00;3.42;;;;;;;15.58;82.98;99883.44;1809798;78;21680;-70
2022/05/31 10:19:26;;;;;;;4.62;2.90;;;;;;;15.65;83.32;99879.27;1806779;78;21124;-72
2022/05/31 10:21:56;;;;;;;2.92;2.37;;;;;;;15.58;82.30;99881.23;1806002;78;21033;-76
2022/05/31 10:24:29;;;;;;;3.22;2.27;;;;;;;15.50;82.45;99867.69;1800723;78;21522;-72
2022/05/31 10:27:22;;;;;;;5.08;2.60;;;;;;;15.53;83.31;99854.50;1808045;78;21093;-76
2022/05/31 10:30:09;;;;;;;12.78;3.42;;;;;;;15.67;83.80;99850.57;1804193;78;21131;-70
2022/05/31 10:33:01;;;;;;;7.05;3.30;;;;;;;15.76;83.45;99842.92;1808444;78;20963;-69
2022/05/31 10:35:35;;;;;;;7.90;3.60;;;;;;;15.86;83.97;99844.44;1782827;78;21022;-71
2022/05/31 10:38:12;;;;;;;;;;;;;;;16.00;84.19;99843.30;1810840;78;21042;-71
2022/05/31 10:41:01;;;;;;;3.37;2.90;;;;;;;16.14;83.98;99843.73;1758721;80;20603;-71
2022/05/31 10:43:44;;;;;;;4.28;3.40;;;;;;;16.25;83.54;99854.37;1741398;81;21561;-74
2022/05/31 10:46:28;;;;;;;7.17;3.05;;;;;;;16.29;82.97;99863.03;1713297;81;21600;-74
2022/05/31 10:49:17;;;;;;;4.62;3.52;;;;;;;16.29;82.50;99871.37;1743125;81;21000;-72
2022/05/31 10:52:29;;;;;;;5.00;4.08;;;;;;;16.36;82.70;99879.13;1770347;80;21446;-74
2022/05/31 10:55:20;;;;;;;4.28;3.58;;;;;;;16.42;81.09;99865.80;1773966;80;20966;-78
2022/05/31 10:58:13;;;;;;;6.72;3.33;;;;;;;16.23;81.89;99871.40;1760374;80;21022;-76
2022/05/31 11:01:30;;;;;;;8.60;3.37;;;;;;;16.30;82.20;99871.63;1722552;81;21577;-77
2022/05/31 11:04:31;;;;;;;7.05;3.80;;;;;;;16.35;82.32;99871.13;1725743;81;21027;-76
2022/05/31 11:07:27;;;;;;;6.45;3.58;;;;;;;16.37;81.09;99875.20;1755958;81;21031;-69
2022/05/31 11:13:42;;;;;;;4.95;4.10;;;;;;;16.08;81.93;99880.45;1751819;81;21238;-72
2022/05/31 11:16:25;;;;;;;5.33;4.17;;;;;;;16.09;82.98;99865.41;1751813;81;21015;-73
2022/05/31 11:19:33;;;;;;;8.63;4.00;;;;;;;16.24;83.61;99855.53;1754844;81;21034;-71
2022/05/31 11:22:23;;;;;;;5.28;3.92;;;;;;;16.48;85.17;99849.08;1752023;81;21342;-74
2022/05/31 11:25:29;;;;;;;5.47;4.00;;;;;;;16.87;85.54;99851.36;1757645;81;21003;-75
2022/05/31 11:28:17;;;;;;;6.60;3.90;;;;;;;17.16;84.03;99855.56;1798735;79;21022;-72
2022/05/31 11:31:10;;;;;;;6.22;2.85;;;;;;;17.39;84.27;99851.58;1791342;79;21122;-73
2022/05/31 11:34:35;;;;;;;3.53;3.23;;;;;;;17.68;82.13;99852.87;1793959;79;21054;-72
2022/05/31 11:37:19;;;;;;;3.72;3.22;;;;;;;17.87;80.38;99859.67;1792604;77;21074;-75
2022/05/31 11:43:50;;;;;;;3.05;2.40;;;;;;;18.12;77.72;99858.05;1796976;77;21066;-81
2022/05/31 11:47:20;;;;;;;3.40;2.95;;;;;;;18.20;76.72;99869.61;1794693;79;21032;-81
2022/05/31 11:53:59;;;;;;;4.65;3.17;;;;;;;18.31;76.65;99871.83;1702572;80;21058;-69
2022/05/31 11:56:34;;;;;;;5.78;3.47;;;;;;;18.38;75.93;99880.36;1752067;79;21097;-75
2022/05/31 11:59:19;;;;;;;7.75;3.33;;;;;;;18.46;75.63;99886.31;1760260;80;21015;-73
2022/05/31 12:01:54;;;;;;;5.28;3.47;;;;;;;18.35;74.26;99878.31;1758296;80;21449;-74
2022/05/31 12:04:27;;;;;;;;;;;;;;;18.31;75.04;99878.23;1762662;80;20995;-72
2022/05/31 12:07:05;;;;;;;3.27;2.95;;;;;;;18.19;73.81;99883.91;1753999;80;20144;-69
2022/05/31 12:10:01;;;;;;;3.92;2.62;;;;;;;18.06;73.57;99884.59;1759093;80;21011;-72
2022/05/31 12:12:35;;;;;;;4.10;2.85;;;;;;;18.05;73.10;99899.11;1716269;80;21077;-72
2022/05/31 12:15:10;;;;;;;6.33;2.62;;;;;;;17.93;73.96;99893.66;1759781;80;21031;-73
2022/05/31 12:18:01;;;;;;;2.58;2.30;;;;;;;18.03;74.78;99897.88;1759177;80;21004;-72
2022/05/31 12:20:46;;;;;;;3.08;2.70;;;;;;;18.21;74.84;99894.95;1761451;80;21027;-70
2022/05/31 12:23:37;;;;;;;;;;;;;;;18.37;72.49;99893.48;1760808;80;21050;-71
2022/05/31 12:26:07;;;;;;;6.10;2.67;;;;;;;18.37;73.03;99892.70;1713649;82;21166;-71
2022/05/31 12:29:00;;;;;;;6.85;3.05;;;;;;;18.44;71.42;99891.45;1697285;81;21005;-72
2022/05/31 12:31:28;;;;;;;7.65;2.77;;;;;;;18.24;71.52;99883.06;1760498;80;21030;-73
2022/05/31 12:34:15;;;;;;;3.55;2.72;;;;;;;18.16;71.89;99881.28;1759420;80;20995;-72
2022/05/31 12:37:04;;;;;;;3.83;2.30;;;;;;;18.15;72.39;99873.28;1724613;80;21027;-74
2022/05/31 12:39:33;;;;;;;3.50;2.60;;;;;;;18.22;72.79;99878.42;1762574;80;21214;-74
2022/05/31 12:42:17;;;;;;;3.45;3.15;;;;;;;18.34;70.85;99871.91;1752265;80;21054;-72
2022/05/31 12:44:48;;;;;;;13.00;3.08;;;;;;;18.25;71.06;99870.72;1747165;80;21059;-69
2022/05/31 12:47:32;;;;;;;3.60;2.98;;;;;;;18.16;71.21;99863.73;1750607;79;21034;-71
2022/05/31 12:50:09;;;;;;;5.28;2.50;;;;;;;18.03;70.79;99867.20;1733024;80;21102;-68